National Weather Service United States Department of Commerce

Fire Weather Threats Continue in Southern California

A storm system passing over the west coast ridge and into the Great Basin the next couple of days will improve air quality across the Pacific Northwest, and bring a wintry mix to the northern Great Basin and northern Rockies. Gusty winds will increase fire weather threats across portions of northern California, and continue to exacerbate ongoing fires across Southern California. Read More >

                                       ZTL Airspace Summary / KAVL TAF                    For ATC Planning Purposes Only
ZTL Airspace Summary:
High pressure will build over ZTL. Expect VFR conditions under SCT/BKN mid-level and cirrus clouds over AL/GA/SC/NC and VFR/MVFR conditions over TN/VA. Surface winds will be mostly northwest to southwest at 3-12kts over AL/GA/SC and mostly north to southeast at 3-10kts over TN/VA/NC. Flight Hazards: LGT-MOD turbulence above FL200 over all ZTL. Occasional LGT Rime icing 130-FL210.

Updated:12/14/2017 8:55 PM
 

Asheville Terminal Aerodrome Forecast:
 
FTUS80 KAVL 142330
KAVL 142327Z 1500/1524 34010KT P6SM FEW040 SCT120 BKN200
     FM151600 34012G18KT P6SM BKN200

 

AVL METAR:  
SAUS70 KAVL 150400
METAR KAVL 150354Z 35006KT 10SM CLR 02/M03 A2996 RMK AO2 SLP148
     T00221028

Go to KAVL TAF TDA
Go to KAVL TAF TDA

 
AVL TRACON HAZARDS
AVL TRACON: SFC-10000
AVG CIG BASE WHERE REPORTED BLW 10000FT: NONE REPORTED
LOWEST REPORTED CIG: NONE REPORTED
LOWEST REPORTED FLIGHT CAT: VFR
METARS:
KAVL 150354Z 35006KT 10SM CLR 02/M03 A2996 RMK AO2 SLP148 T00221028

AVL TRACON HAZARD

Forecast Surface Map Loop / Collaborative Convective Forecast Product / Vertical Wind Profile
Weather Map

 

AIRMETs & SIGMETS/ Southeast Radar loop / Satellite Image (click on image to enlarge)
Weather Map Southeast Radar Loop

satellite